createdAt,value
2023-04-09T00:01:04.533Z,100.00
2023-04-09T00:03:09.467Z,100.00
2023-04-09T00:05:14.710Z,100.00
2023-04-09T00:07:19.332Z,100.00
2023-04-09T00:09:24.288Z,100.00
2023-04-09T00:11:31.854Z,100.00
2023-04-09T00:13:39.551Z,100.00
2023-04-09T00:15:45.047Z,100.00
2023-04-09T00:17:49.949Z,100.00
2023-04-09T00:19:54.881Z,100.00
2023-04-09T00:21:59.767Z,100.00
2023-04-09T00:24:04.640Z,100.00
2023-04-09T00:26:09.756Z,100.00
2023-04-09T00:28:18.716Z,100.00
2023-04-09T00:30:23.771Z,100.00
2023-04-09T00:32:28.822Z,100.00
2023-04-09T00:34:34.114Z,100.00
2023-04-09T00:36:39.125Z,100.00
2023-04-09T00:38:44.123Z,100.00
2023-04-09T00:40:52.181Z,100.00
2023-04-09T00:42:57.268Z,100.00
2023-04-09T00:45:04.994Z,100.00
2023-04-09T00:47:09.881Z,100.00
2023-04-09T00:49:15.056Z,100.00
2023-04-09T00:51:21.204Z,100.00
2023-04-09T00:53:26.151Z,100.00
2023-04-09T00:55:32.176Z,100.00
2023-04-09T00:57:37.708Z,100.00
2023-04-09T00:59:43.388Z,100.00
2023-04-09T01:01:50.968Z,100.00
2023-04-09T01:03:56.098Z,100.00
2023-04-09T01:06:08.814Z,100.00
2023-04-09T01:08:22.362Z,100.00
2023-04-09T01:10:32.188Z,100.00
2023-04-09T01:12:45.742Z,100.00
2023-04-09T01:14:57.725Z,100.00
2023-04-09T01:17:08.523Z,100.00
2023-04-09T01:19:27.166Z,100.00
2023-04-09T01:21:36.666Z,100.00
2023-04-09T01:23:50.927Z,100.00
2023-04-09T01:26:06.548Z,100.00
2023-04-09T01:28:29.111Z,100.00
2023-04-09T01:30:35.131Z,100.00
2023-04-09T01:32:41.947Z,100.00
2023-04-09T01:34:49.244Z,100.00
2023-04-09T01:36:58.232Z,100.00
2023-04-09T01:39:04.403Z,100.00
2023-04-09T01:41:10.765Z,100.00
2023-04-09T01:43:17.768Z,100.00
2023-04-09T01:45:26.063Z,100.00
2023-04-09T01:47:31.617Z,100.00
2023-04-09T01:49:37.110Z,100.00
2023-04-09T01:51:42.202Z,100.00
2023-04-09T01:53:47.243Z,100.00
2023-04-09T01:55:52.283Z,100.00
2023-04-09T01:57:57.185Z,100.00
2023-04-09T02:00:02.629Z,100.00
2023-04-09T02:02:31.533Z,100.00
2023-04-09T02:04:42.106Z,100.00
2023-04-09T02:06:51.517Z,100.00
2023-04-09T02:08:57.251Z,100.00
2023-04-09T02:11:07.113Z,100.00
2023-04-09T02:13:19.957Z,100.00
2023-04-09T02:15:25.268Z,100.00
2023-04-09T02:17:32.932Z,100.00
2023-04-09T02:19:44.884Z,100.00
2023-04-09T02:21:49.916Z,100.00
2023-04-09T02:23:55.829Z,100.00
2023-04-09T02:26:00.844Z,100.00
2023-04-09T02:28:05.857Z,100.00
2023-04-09T02:30:12.006Z,100.00
2023-04-09T02:32:17.434Z,100.00
2023-04-09T02:34:25.078Z,100.00
2023-04-09T02:36:30.103Z,100.00
2023-04-09T02:38:35.524Z,100.00
2023-04-09T02:40:40.478Z,100.00
2023-04-09T02:42:45.488Z,100.00
2023-04-09T02:44:50.577Z,100.00
2023-04-09T02:46:57.252Z,100.00
2023-04-09T02:49:02.269Z,100.00
2023-04-09T02:51:11.164Z,100.00
2023-04-09T02:53:16.170Z,100.00
2023-04-09T02:55:21.782Z,100.00
2023-04-09T02:57:26.785Z,100.00
2023-04-09T02:59:33.134Z,100.00
2023-04-09T03:01:38.601Z,100.00
2023-04-09T03:03:44.116Z,100.00
2023-04-09T03:05:49.195Z,100.00
2023-04-09T03:07:56.811Z,100.00
2023-04-09T03:10:01.885Z,100.00
2023-04-09T03:12:06.957Z,100.00
2023-04-09T03:14:11.738Z,100.00
2023-04-09T03:16:16.694Z,100.00
2023-04-09T03:18:21.663Z,100.00
2023-04-09T03:20:26.540Z,100.00
2023-04-09T03:22:31.564Z,100.00
2023-04-09T03:24:39.120Z,100.00
2023-04-09T03:26:44.737Z,100.00
2023-04-09T03:28:51.888Z,100.00
2023-04-09T03:30:56.859Z,100.00
2023-04-09T03:33:02.403Z,100.00
2023-04-09T03:35:11.432Z,100.00
2023-04-09T03:37:18.479Z,100.00
2023-04-09T03:39:23.522Z,100.00
2023-04-09T03:41:31.662Z,100.00
2023-04-09T03:43:41.288Z,100.00
2023-04-09T03:45:46.856Z,100.00
2023-04-09T03:47:58.872Z,100.00
2023-04-09T03:50:04.339Z,100.00
2023-04-09T03:52:22.251Z,100.00
2023-04-09T03:54:36.148Z,100.00
2023-04-09T03:56:47.366Z,100.00
2023-04-09T03:58:54.959Z,100.00
2023-04-09T04:01:05.415Z,100.00
2023-04-09T04:03:31.131Z,100.00
2023-04-09T04:05:50.805Z,100.00
2023-04-09T04:07:56.188Z,100.00
2023-04-09T04:10:07.320Z,100.00
2023-04-09T04:12:14.988Z,100.00
2023-04-09T04:14:31.584Z,100.00
2023-04-09T04:16:44.227Z,100.00
2023-04-09T04:18:52.493Z,100.00
2023-04-09T04:20:58.046Z,100.00
2023-04-09T04:23:03.013Z,100.00
2023-04-09T04:25:09.245Z,100.00
2023-04-09T04:27:16.917Z,100.00
2023-04-09T04:29:22.535Z,100.00
2023-04-09T04:31:33.921Z,100.00
2023-04-09T04:33:39.132Z,100.00
2023-04-09T04:35:48.981Z,100.00
2023-04-09T04:38:27.293Z,100.00
2023-04-09T04:40:33.226Z,100.00
2023-04-09T04:42:42.520Z,100.00
2023-04-09T04:44:52.162Z,100.00
2023-04-09T04:47:19.590Z,100.00
2023-04-09T04:49:24.552Z,100.00
2023-04-09T04:51:30.391Z,100.00
2023-04-09T04:53:46.541Z,100.00
2023-04-09T04:55:52.737Z,100.00
2023-04-09T04:58:05.118Z,100.00
2023-04-09T05:00:19.415Z,100.00
2023-04-09T05:02:25.580Z,100.00
2023-04-09T05:04:53.005Z,100.00
2023-04-09T05:07:02.970Z,100.00
2023-04-09T05:09:07.905Z,100.00
2023-04-09T05:11:20.058Z,100.00
2023-04-09T05:13:28.964Z,100.00
2023-04-09T05:15:33.970Z,100.00
2023-04-09T05:17:38.920Z,100.00
2023-04-09T05:19:45.586Z,100.00
2023-04-09T05:21:51.105Z,100.00
2023-04-09T05:23:59.923Z,100.00
2023-04-09T05:26:09.673Z,100.00
2023-04-09T05:28:29.477Z,100.00
2023-04-09T05:30:44.227Z,100.00
2023-04-09T05:32:50.406Z,100.00
2023-04-09T05:34:55.199Z,100.00
2023-04-09T05:37:00.296Z,100.00
2023-04-09T05:39:05.828Z,100.00
2023-04-09T05:41:10.888Z,100.00
2023-04-09T05:43:29.343Z,100.00
2023-04-09T05:45:34.407Z,100.00
2023-04-09T05:47:39.339Z,100.00
2023-04-09T05:49:53.078Z,100.00
2023-04-09T05:51:57.984Z,100.00
2023-04-09T05:54:06.492Z,100.00
2023-04-09T05:56:18.318Z,100.00
2023-04-09T05:58:34.100Z,100.00
2023-04-09T06:00:40.063Z,100.00
2023-04-09T06:02:45.229Z,100.00
2023-04-09T06:04:50.004Z,100.00
2023-04-09T06:06:55.866Z,100.00
2023-04-09T06:09:00.751Z,100.00
2023-04-09T06:11:07.995Z,100.00
2023-04-09T06:13:13.307Z,100.00
2023-04-09T06:15:21.647Z,100.00
2023-04-09T06:17:26.649Z,100.00
2023-04-09T06:19:31.667Z,100.00
2023-04-09T06:21:36.584Z,100.00
2023-04-09T06:23:41.588Z,100.00
2023-04-09T06:25:46.436Z,100.00
2023-04-09T06:27:51.368Z,100.00
2023-04-09T06:29:56.352Z,100.00
2023-04-09T06:32:04.021Z,100.00
2023-04-09T06:34:08.937Z,100.00
2023-04-09T06:36:14.252Z,100.00
2023-04-09T06:38:18.859Z,100.00
2023-04-09T06:40:23.835Z,100.00
2023-04-09T06:42:28.859Z,100.00
2023-04-09T06:44:47.527Z,100.00
2023-04-09T06:46:52.559Z,100.00
2023-04-09T06:49:00.653Z,100.00
2023-04-09T06:51:05.766Z,100.00
2023-04-09T06:53:10.685Z,100.00
2023-04-09T06:55:15.693Z,100.00
2023-04-09T06:57:20.697Z,100.00
2023-04-09T06:59:25.581Z,100.00
2023-04-09T07:01:30.628Z,100.00
2023-04-09T07:03:35.913Z,100.00
2023-04-09T07:05:43.279Z,100.00
2023-04-09T07:07:48.253Z,100.00
2023-04-09T07:09:56.612Z,100.00
2023-04-09T07:12:01.583Z,100.00
2023-04-09T07:14:06.504Z,100.00
2023-04-09T07:16:11.603Z,100.00
2023-04-09T07:18:16.490Z,100.00
2023-04-09T07:20:21.635Z,100.00
2023-04-09T07:22:29.603Z,100.00
2023-04-09T07:24:34.591Z,100.00
2023-04-09T07:26:39.466Z,100.00
2023-04-09T07:28:44.412Z,100.00
2023-04-09T07:30:49.382Z,100.00
2023-04-09T07:32:55.318Z,100.00
2023-04-09T07:35:02.573Z,100.00
2023-04-09T07:37:07.598Z,100.00
2023-04-09T07:39:15.172Z,100.00
2023-04-09T07:41:20.178Z,100.00
2023-04-09T07:43:25.068Z,100.00
2023-04-09T07:45:30.038Z,100.00
2023-04-09T07:47:35.495Z,100.00
2023-04-09T07:49:40.518Z,100.00
2023-04-09T07:51:46.208Z,100.00
2023-04-09T07:53:51.223Z,100.00
2023-04-09T07:55:58.828Z,100.00
2023-04-09T07:58:04.388Z,100.00
2023-04-09T08:00:11.015Z,100.00
2023-04-09T08:02:18.744Z,100.00
2023-04-09T08:04:23.806Z,100.00
2023-04-09T08:06:29.006Z,100.00
2023-04-09T08:08:33.850Z,100.00
2023-04-09T08:10:38.753Z,100.00
2023-04-09T08:12:46.335Z,100.00
2023-04-09T08:14:51.245Z,100.00
2023-04-09T08:16:56.652Z,100.00
2023-04-09T08:19:01.595Z,100.00
2023-04-09T08:21:08.667Z,100.00
2023-04-09T08:23:13.640Z,100.00
2023-04-09T08:25:18.548Z,100.00
2023-04-09T08:27:23.526Z,100.00
2023-04-09T08:29:32.258Z,100.00
2023-04-09T08:31:38.179Z,100.00
2023-04-09T08:33:43.095Z,100.00
2023-04-09T08:35:48.084Z,100.00
2023-04-09T08:37:52.912Z,100.00
2023-04-09T08:39:57.860Z,100.00
2023-04-09T08:42:03.883Z,100.00
2023-04-09T08:44:08.873Z,100.00
2023-04-09T08:46:16.774Z,100.00
2023-04-09T08:48:23.073Z,100.00
2023-04-09T08:50:28.031Z,100.00
2023-04-09T08:52:35.355Z,100.00
2023-04-09T08:54:40.541Z,100.00
2023-04-09T08:56:46.408Z,100.00
2023-04-09T08:58:51.947Z,100.00
2023-04-09T09:00:57.395Z,100.00
2023-04-09T09:03:08.828Z,100.00
2023-04-09T09:05:14.010Z,100.00
2023-04-09T09:07:19.926Z,100.00
2023-04-09T09:09:25.086Z,100.00
2023-04-09T09:11:30.578Z,100.00
2023-04-09T09:13:35.534Z,100.00
2023-04-09T09:15:40.697Z,100.00
2023-04-09T09:17:57.105Z,100.00
2023-04-09T09:20:22.627Z,100.00
2023-04-09T09:22:28.394Z,100.00
2023-04-09T09:24:34.215Z,100.00
2023-04-09T09:26:41.830Z,100.00
2023-04-09T09:28:47.431Z,100.00
2023-04-09T09:30:52.733Z,100.00
2023-04-09T09:32:58.034Z,100.00
2023-04-09T09:35:09.250Z,100.00
2023-04-09T09:37:29.667Z,100.00
2023-04-09T09:39:47.180Z,100.00
2023-04-09T09:42:09.532Z,100.00
2023-04-09T09:44:15.773Z,100.00
2023-04-09T09:46:21.064Z,100.00
2023-04-09T09:48:28.348Z,100.00
2023-04-09T09:50:38.338Z,100.00
2023-04-09T09:52:47.828Z,100.00
2023-04-09T09:54:56.075Z,100.00
2023-04-09T09:57:07.661Z,100.00
2023-04-09T09:59:22.918Z,99.82
2023-04-09T10:01:31.071Z,99.17
2023-04-09T10:03:38.617Z,100.00
2023-04-09T10:05:48.124Z,100.00
2023-04-09T10:07:52.993Z,100.00
2023-04-09T10:10:00.287Z,100.00
2023-04-09T10:12:07.824Z,100.00
2023-04-09T10:14:13.105Z,100.00
2023-04-09T10:16:18.897Z,100.00
2023-04-09T10:18:24.156Z,100.00
2023-04-09T10:20:35.603Z,100.00
2023-04-09T10:22:46.082Z,100.00
2023-04-09T10:24:51.555Z,100.00
2023-04-09T10:26:58.500Z,100.00
2023-04-09T10:29:08.842Z,100.00
2023-04-09T10:31:14.051Z,100.00
2023-04-09T10:33:19.708Z,100.00
2023-04-09T10:35:28.545Z,100.00
2023-04-09T10:37:33.519Z,100.00
2023-04-09T10:39:44.311Z,100.00
2023-04-09T10:41:51.770Z,98.92
2023-04-09T10:43:56.967Z,96.28
2023-04-09T10:46:02.175Z,95.67
2023-04-09T10:48:07.952Z,96.77
2023-04-09T10:50:24.228Z,95.30
2023-04-09T10:52:35.268Z,94.98
2023-04-09T10:54:49.345Z,94.22
2023-04-09T10:57:29.788Z,91.82
2023-04-09T10:59:34.693Z,89.81
2023-04-09T11:01:39.613Z,88.59
2023-04-09T11:03:48.029Z,88.13
2023-04-09T11:05:56.890Z,89.86
2023-04-09T11:08:07.659Z,90.00
2023-04-09T11:10:15.521Z,87.80
2023-04-09T11:12:20.435Z,85.08
2023-04-09T11:14:25.962Z,84.21
2023-04-09T11:16:32.759Z,83.72
2023-04-09T11:18:37.981Z,85.01
2023-04-09T11:20:43.482Z,84.03
2023-04-09T11:22:48.397Z,78.17
2023-04-09T11:24:53.741Z,73.13
2023-04-09T11:27:02.204Z,73.89
2023-04-09T11:29:09.470Z,73.80
2023-04-09T11:31:14.705Z,74.09
2023-04-09T11:33:20.434Z,74.73
2023-04-09T11:35:26.386Z,67.35
2023-04-09T11:37:31.427Z,67.85
2023-04-09T11:39:39.711Z,68.72
2023-04-09T11:41:44.671Z,68.08
2023-04-09T11:43:55.217Z,69.22
2023-04-09T11:46:00.553Z,63.12
2023-04-09T11:48:05.882Z,65.70
2023-04-09T11:50:12.510Z,60.08
2023-04-09T11:52:17.785Z,60.34
2023-04-09T11:54:22.672Z,57.25
2023-04-09T11:56:27.736Z,56.03
2023-04-09T11:58:32.644Z,57.54
2023-04-09T12:00:43.625Z,55.29
2023-04-09T12:02:49.988Z,56.30
2023-04-09T12:04:55.308Z,59.46
2023-04-09T12:07:01.339Z,56.39
2023-04-09T12:09:06.442Z,58.78
2023-04-09T12:11:12.220Z,57.26
2023-04-09T12:13:19.861Z,58.01
2023-04-09T12:15:27.388Z,56.54
2023-04-09T12:17:35.215Z,56.98
2023-04-09T12:19:40.210Z,58.49
2023-04-09T12:21:53.132Z,57.37
2023-04-09T12:23:58.003Z,58.48
2023-04-09T12:26:03.238Z,59.13
2023-04-09T12:28:09.357Z,58.53
2023-04-09T12:30:14.623Z,57.79
2023-04-09T12:32:19.656Z,58.04
2023-04-09T12:34:27.507Z,57.22
2023-04-09T12:36:32.533Z,53.78
2023-04-09T12:38:37.423Z,52.25
2023-04-09T12:40:44.445Z,54.93
2023-04-09T12:42:50.151Z,52.25
2023-04-09T12:44:55.057Z,51.94
2023-04-09T12:47:00.068Z,51.31
2023-04-09T12:49:05.935Z,51.67
2023-04-09T12:51:14.895Z,50.95
2023-04-09T12:53:19.834Z,51.75
2023-04-09T12:55:24.936Z,50.42
2023-04-09T12:57:32.046Z,49.78
2023-04-09T12:59:36.958Z,49.78
2023-04-09T13:01:44.654Z,50.49
2023-04-09T13:03:49.801Z,52.17
2023-04-09T13:05:54.796Z,54.22
2023-04-09T13:08:04.738Z,53.22
2023-04-09T13:10:10.628Z,54.39
2023-04-09T13:12:16.212Z,55.19
2023-04-09T13:14:21.160Z,55.44
2023-04-09T13:16:27.628Z,55.85
2023-04-09T13:18:32.581Z,55.96
2023-04-09T13:20:37.466Z,55.63
2023-04-09T13:22:42.669Z,55.25
2023-04-09T13:24:50.073Z,55.00
2023-04-09T13:26:55.317Z,54.18
2023-04-09T13:29:00.033Z,54.36
2023-04-09T13:31:05.572Z,55.28
2023-04-09T13:33:10.677Z,56.56
2023-04-09T13:35:16.821Z,56.19
2023-04-09T13:37:21.748Z,57.08
2023-04-09T13:39:26.841Z,57.09
2023-04-09T13:41:39.349Z,58.54
2023-04-09T13:43:47.863Z,59.22
2023-04-09T13:45:54.186Z,58.82
2023-04-09T13:48:01.249Z,59.67
2023-04-09T13:50:13.290Z,59.00
2023-04-09T13:52:18.345Z,59.54
2023-04-09T13:54:23.233Z,57.89
2023-04-09T13:56:28.800Z,56.27
2023-04-09T13:58:36.446Z,56.45
2023-04-09T14:00:41.672Z,55.79
2023-04-09T14:02:46.800Z,56.04
2023-04-09T14:04:51.485Z,55.89
2023-04-09T14:06:57.615Z,55.47
2023-04-09T14:09:05.220Z,55.34
2023-04-09T14:11:14.084Z,54.95
2023-04-09T14:13:19.052Z,55.24
2023-04-09T14:15:26.792Z,54.76
2023-04-09T14:17:32.239Z,55.53
2023-04-09T14:19:37.170Z,57.37
2023-04-09T14:21:42.761Z,59.12
2023-04-09T14:23:47.711Z,60.39
2023-04-09T14:25:53.600Z,63.42
2023-04-09T14:27:59.223Z,64.81
2023-04-09T14:30:05.250Z,65.70
2023-04-09T14:32:12.774Z,66.29
2023-04-09T14:34:17.968Z,67.34
2023-04-09T14:36:22.701Z,67.56
2023-04-09T14:38:27.814Z,67.96
2023-04-09T14:40:35.311Z,66.40
2023-04-09T14:42:40.222Z,65.97
2023-04-09T14:44:45.156Z,65.91
2023-04-09T14:46:50.229Z,64.13
2023-04-09T14:48:57.796Z,62.95
2023-04-09T14:51:02.745Z,58.30
2023-04-09T14:53:09.421Z,57.79
2023-04-09T14:55:14.955Z,58.36
2023-04-09T14:57:19.825Z,58.06
2023-04-09T14:59:24.762Z,57.67
2023-04-09T15:01:31.289Z,56.19
2023-04-09T15:04:22.945Z,52.74
2023-04-09T15:06:32.453Z,51.17
2023-04-09T15:08:37.338Z,49.73
2023-04-09T15:10:44.770Z,50.10
2023-04-09T15:12:49.987Z,50.53
2023-04-09T15:14:55.013Z,50.45
2023-04-09T15:16:59.984Z,51.54
2023-04-09T15:19:05.285Z,51.01
2023-04-09T15:21:13.154Z,51.55
2023-04-09T15:23:20.691Z,53.41
2023-04-09T15:25:25.693Z,53.20
2023-04-09T15:27:30.681Z,53.25
2023-04-09T15:29:36.431Z,53.86
2023-04-09T15:31:41.697Z,53.38
2023-04-09T15:33:47.350Z,53.75
2023-04-09T15:35:52.373Z,53.67
2023-04-09T15:37:57.194Z,52.06
2023-04-09T15:40:04.827Z,53.81
2023-04-09T15:42:11.118Z,54.07
2023-04-09T15:44:39.708Z,54.66
2023-04-09T15:46:44.649Z,54.66
2023-04-09T15:48:49.636Z,55.86
2023-04-09T15:50:54.657Z,57.37
2023-04-09T15:52:59.682Z,57.16
2023-04-09T15:55:10.527Z,56.08
2023-04-09T15:57:15.504Z,57.13
2023-04-09T15:59:20.916Z,57.41
2023-04-09T16:01:26.181Z,57.15
2023-04-09T16:03:35.589Z,56.18
2023-04-09T16:05:40.553Z,57.38
2023-04-09T16:07:45.527Z,56.89
2023-04-09T16:09:50.593Z,56.36
2023-04-09T16:11:58.477Z,55.42
2023-04-09T16:14:03.643Z,55.58
2023-04-09T16:16:09.179Z,55.82
2023-04-09T16:18:14.120Z,56.99
2023-04-09T16:20:19.636Z,57.04
2023-04-09T16:22:24.666Z,57.24
2023-04-09T16:24:30.925Z,56.58
2023-04-09T16:26:35.840Z,55.20
2023-04-09T16:28:43.399Z,55.24
2023-04-09T16:30:48.312Z,54.80
2023-04-09T16:32:53.497Z,54.99
2023-04-09T16:35:00.865Z,54.65
2023-04-09T16:37:05.775Z,54.15
2023-04-09T16:39:11.117Z,53.99
2023-04-09T16:41:16.013Z,54.32
2023-04-09T16:43:20.996Z,53.73
2023-04-09T16:45:29.768Z,53.67
2023-04-09T16:47:34.947Z,54.00
2023-04-09T16:49:40.049Z,54.38
2023-04-09T16:51:46.315Z,57.68
2023-04-09T16:53:51.246Z,66.20
2023-04-09T16:55:56.321Z,69.92
2023-04-09T16:58:01.329Z,73.05
2023-04-09T17:00:07.627Z,74.31
2023-04-09T17:02:15.194Z,75.07
2023-04-09T17:04:20.447Z,76.13
2023-04-09T17:06:25.398Z,76.80
2023-04-09T17:08:30.399Z,77.74
2023-04-09T17:10:35.545Z,79.01
2023-04-09T17:12:40.525Z,79.39
2023-04-09T17:14:45.572Z,79.98
2023-04-09T17:16:50.346Z,80.60
2023-04-09T17:18:57.894Z,80.96
2023-04-09T17:21:03.052Z,81.99
2023-04-09T17:23:10.233Z,82.25
2023-04-09T17:25:16.131Z,82.08
2023-04-09T17:27:21.182Z,82.20
2023-04-09T17:29:25.898Z,83.26
2023-04-09T17:31:30.823Z,83.58
2023-04-09T17:33:35.750Z,83.21
2023-04-09T17:35:45.026Z,83.43
2023-04-09T17:37:50.018Z,83.78
2023-04-09T17:39:54.906Z,84.28
2023-04-09T17:42:01.891Z,84.40
2023-04-09T17:44:07.095Z,85.46
2023-04-09T17:46:12.362Z,86.42
2023-04-09T17:48:18.094Z,87.65
2023-04-09T17:50:23.197Z,90.41
2023-04-09T17:52:36.792Z,96.37
2023-04-09T17:54:45.538Z,99.95
2023-04-09T17:56:50.556Z,100.00
2023-04-09T17:58:55.681Z,100.00
2023-04-09T18:01:01.091Z,100.00
2023-04-09T18:03:09.448Z,100.00
2023-04-09T18:05:17.146Z,100.00
2023-04-09T18:07:22.296Z,100.00
2023-04-09T18:11:54.947Z,100.00
2023-04-09T18:14:01.208Z,100.00
2023-04-09T18:16:06.436Z,100.00
2023-04-09T18:18:11.696Z,100.00
2023-04-09T18:20:16.695Z,100.00
2023-04-09T18:22:21.644Z,100.00
2023-04-09T18:24:29.529Z,100.00
2023-04-09T18:26:34.768Z,100.00
2023-04-09T18:28:39.655Z,100.00
2023-04-09T18:30:45.090Z,100.00
2023-04-09T18:32:51.895Z,100.00
2023-04-09T18:34:57.162Z,100.00
2023-04-09T18:37:02.186Z,100.00
2023-04-09T18:39:09.752Z,100.00
2023-04-09T18:41:24.902Z,100.00
2023-04-09T18:43:29.907Z,100.00
2023-04-09T18:45:34.803Z,100.00
2023-04-09T18:47:40.757Z,100.00
2023-04-09T18:49:45.800Z,100.00
2023-04-09T18:51:50.780Z,100.00
2023-04-09T18:53:56.155Z,100.00
2023-04-09T18:56:01.013Z,100.00
2023-04-09T18:58:12.710Z,100.00
2023-04-09T19:00:18.089Z,100.00
2023-04-09T19:02:22.887Z,100.00
2023-04-09T19:04:30.589Z,100.00
2023-04-09T19:06:36.619Z,100.00
2023-04-09T19:08:41.824Z,100.00
2023-04-09T19:10:47.769Z,100.00
2023-04-09T19:12:54.141Z,100.00
2023-04-09T19:15:04.736Z,100.00
2023-04-09T19:17:09.853Z,100.00
2023-04-09T19:19:14.937Z,100.00
2023-04-09T19:21:19.964Z,100.00
2023-04-09T19:23:24.959Z,100.00
2023-04-09T19:25:30.144Z,100.00
2023-04-09T19:27:35.036Z,100.00
2023-04-09T19:29:40.014Z,100.00
2023-04-09T19:31:47.662Z,100.00
2023-04-09T19:33:52.730Z,100.00
2023-04-09T19:35:58.602Z,100.00
2023-04-09T19:38:04.969Z,100.00
2023-04-09T19:40:11.809Z,100.00
2023-04-09T19:42:16.772Z,100.00
2023-04-09T19:44:22.120Z,100.00
2023-04-09T19:46:26.862Z,100.00
2023-04-09T19:48:34.425Z,100.00
2023-04-09T19:50:41.141Z,100.00
2023-04-09T19:52:46.286Z,100.00
2023-04-09T19:54:51.260Z,100.00
2023-04-09T19:56:56.244Z,100.00
2023-04-09T19:59:01.186Z,100.00
2023-04-09T20:01:06.326Z,100.00
2023-04-09T20:03:11.588Z,100.00
2023-04-09T20:05:22.494Z,100.00
2023-04-09T20:07:27.407Z,100.00
2023-04-09T20:09:32.495Z,100.00
2023-04-09T20:11:37.472Z,100.00
2023-04-09T20:13:42.344Z,100.00
2023-04-09T20:15:47.496Z,100.00
2023-04-09T20:17:53.740Z,100.00
2023-04-09T20:19:58.784Z,100.00
2023-04-09T20:22:06.296Z,100.00
2023-04-09T20:24:11.580Z,100.00
2023-04-09T20:26:16.556Z,100.00
2023-04-09T20:28:22.121Z,100.00
2023-04-09T20:30:27.102Z,100.00
2023-04-09T20:32:32.655Z,100.00
2023-04-09T20:34:37.793Z,100.00
2023-04-09T20:36:44.062Z,100.00
2023-04-09T20:38:51.767Z,100.00
2023-04-09T20:40:56.915Z,100.00
2023-04-09T20:43:01.932Z,100.00
2023-04-09T20:45:07.902Z,100.00
2023-04-09T20:47:13.189Z,100.00
2023-04-09T20:49:18.289Z,100.00
2023-04-09T20:51:23.171Z,100.00
2023-04-09T20:53:28.840Z,100.00
2023-04-09T20:55:37.241Z,100.00
2023-04-09T20:57:42.600Z,100.00
2023-04-09T20:59:47.606Z,100.00
2023-04-09T21:01:54.086Z,100.00
2023-04-09T21:03:59.135Z,100.00
2023-04-09T21:06:04.187Z,100.00
2023-04-09T21:08:14.727Z,100.00
2023-04-09T21:10:19.815Z,100.00
2023-04-09T21:12:28.188Z,100.00
2023-04-09T21:14:33.771Z,100.00
2023-04-09T21:16:39.534Z,100.00
2023-04-09T21:18:45.060Z,100.00
2023-04-09T21:20:50.543Z,100.00
2023-04-09T21:22:56.370Z,100.00
2023-04-09T21:25:03.341Z,100.00
2023-04-09T21:27:08.389Z,100.00
2023-04-09T21:29:15.915Z,100.00
2023-04-09T21:31:20.928Z,100.00
2023-04-09T21:33:27.524Z,100.00
2023-04-09T21:35:34.462Z,100.00
2023-04-09T21:37:39.920Z,100.00
2023-04-09T21:39:44.946Z,100.00
2023-04-09T21:41:49.813Z,100.00
2023-04-09T21:43:54.793Z,100.00
2023-04-09T21:46:03.226Z,100.00
2023-04-09T21:48:09.349Z,100.00
2023-04-09T21:50:15.760Z,100.00
2023-04-09T21:52:20.702Z,100.00
2023-04-09T21:54:25.571Z,100.00
2023-04-09T21:56:30.580Z,100.00
2023-04-09T21:58:35.570Z,100.00
2023-04-09T22:00:40.865Z,100.00
2023-04-09T22:02:48.931Z,100.00
2023-04-09T22:04:54.317Z,100.00
2023-04-09T22:06:59.342Z,100.00
2023-04-09T22:09:04.724Z,100.00
2023-04-09T22:11:10.378Z,100.00
2023-04-09T22:13:15.028Z,100.00
2023-04-09T22:15:20.234Z,100.00
2023-04-09T22:17:25.273Z,100.00
2023-04-09T22:19:34.201Z,100.00
2023-04-09T22:21:39.138Z,100.00
2023-04-09T22:23:44.055Z,100.00
2023-04-09T22:25:48.938Z,100.00
2023-04-09T22:27:55.025Z,100.00
2023-04-09T22:30:03.006Z,100.00
2023-04-09T22:32:08.112Z,100.00
2023-04-09T22:34:20.644Z,100.00
2023-04-09T22:36:30.067Z,100.00
2023-04-09T22:38:35.025Z,100.00
2023-04-09T22:40:40.285Z,100.00
2023-04-09T22:42:45.912Z,100.00
2023-04-09T22:44:51.073Z,100.00
2023-04-09T22:46:56.004Z,100.00
2023-04-09T22:49:05.032Z,100.00
2023-04-09T22:51:10.827Z,100.00
2023-04-09T22:53:21.884Z,100.00
2023-04-09T22:55:27.599Z,100.00
2023-04-09T22:57:32.887Z,100.00
2023-04-09T22:59:40.734Z,100.00
2023-04-09T23:01:49.175Z,100.00
2023-04-09T23:03:54.275Z,100.00
2023-04-09T23:05:59.208Z,100.00
2023-04-09T23:08:04.200Z,100.00
2023-04-09T23:10:14.431Z,100.00
2023-04-09T23:12:19.331Z,100.00
2023-04-09T23:14:24.203Z,100.00
2023-04-09T23:16:29.164Z,100.00
2023-04-09T23:18:34.093Z,100.00
2023-04-09T23:20:39.483Z,100.00
2023-04-09T23:22:44.648Z,100.00
2023-04-09T23:24:49.371Z,100.00
2023-04-09T23:26:56.883Z,100.00
2023-04-09T23:29:01.993Z,100.00
2023-04-09T23:31:07.197Z,100.00
2023-04-09T23:33:11.912Z,100.00
2023-04-09T23:35:17.420Z,100.00
2023-04-09T23:37:22.374Z,100.00
2023-04-09T23:39:27.237Z,100.00
2023-04-09T23:41:32.198Z,100.00
2023-04-09T23:43:40.163Z,100.00
2023-04-09T23:45:46.302Z,100.00
2023-04-09T23:47:51.666Z,100.00
2023-04-09T23:49:56.592Z,100.00
2023-04-09T23:52:01.538Z,100.00
2023-04-09T23:54:07.084Z,100.00
2023-04-09T23:56:12.233Z,100.00
2023-04-09T23:58:17.882Z,100.00
